EJU56KT LPPR-GVAC
Flight info
| Callsign | EJU56KT |
|---|---|
| Flight time | 4h 0m |
| Altitude | 35000 |
| Route | ASMOV DCT BEXAL DCT SAMAR DCT YUSME/N0454F370 DCT LIMAL/N0454F360 N873 IPERA DCT DIMKI DIMKI1S |
| Aircraft | A320/M-SDE3FGHIRWY/LB1 |
Departure
| Time | 2026-05-08 10:20 |
|---|---|
| Airport | Francisco de Sá Carneiro Airport (LPPR) |
Arrival
| Time | 2026-05-08 14:20 |
|---|---|
| Airport | Amílcar Cabral International Airport (GVAC) |
| Time | Latitude | Longitude | Altitude | Speed | Heading |
|---|---|---|---|---|---|
| 2026-05-08 09:54 | 41.23375 | -8.67142 | 245 ft | 0 kts | 79° |
| 2026-05-08 10:09 | 41.23373 | -8.67162 | 245 ft | 4 kts | 77° |
| 2026-05-08 10:09 | 41.23365 | -8.67195 | 245 ft | 4 kts | 62° |
| 2026-05-08 10:09 | 41.23350 | -8.67220 | 245 ft | 4 kts | 16° |
| 2026-05-08 10:09 | 41.23343 | -8.67222 | 245 ft | 0 kts | 4° |
| 2026-05-08 10:11 | 41.23348 | -8.67223 | 245 ft | 3 kts | 356° |
| 2026-05-08 10:11 | 41.23363 | -8.67265 | 244 ft | 10 kts | 286° |
| 2026-05-08 10:12 | 41.23414 | -8.67368 | 239 ft | 16 kts | 340° |
| 2026-05-08 10:12 | 41.23527 | -8.67396 | 239 ft | 17 kts | 349° |
| 2026-05-08 10:12 | 41.23648 | -8.67429 | 238 ft | 18 kts | 348° |
| 2026-05-08 10:12 | 41.23774 | -8.67462 | 239 ft | 18 kts | 348° |
| 2026-05-08 10:13 | 41.23901 | -8.67495 | 238 ft | 19 kts | 349° |
| 2026-05-08 10:13 | 41.24034 | -8.67528 | 238 ft | 20 kts | 351° |
| 2026-05-08 10:13 | 41.24160 | -8.67559 | 238 ft | 13 kts | 345° |
| 2026-05-08 10:13 | 41.24242 | -8.67601 | 236 ft | 10 kts | 318° |
| 2026-05-08 10:14 | 41.24301 | -8.67697 | 231 ft | 12 kts | 319° |
| 2026-05-08 10:14 | 41.24393 | -8.67729 | 226 ft | 14 kts | 350° |
| 2026-05-08 10:14 | 41.24507 | -8.67761 | 219 ft | 12 kts | 349° |
| 2026-05-08 10:14 | 41.24571 | -8.67777 | 221 ft | 10 kts | 349° |
| 2026-05-08 10:15 | 41.24648 | -8.67797 | 212 ft | 12 kts | 349° |
| 2026-05-08 10:15 | 41.24714 | -8.67814 | 208 ft | 9 kts | 348° |
| 2026-05-08 10:15 | 41.24782 | -8.67836 | 208 ft | 11 kts | 336° |
| 2026-05-08 10:15 | 41.24856 | -8.67895 | 206 ft | 14 kts | 329° |
| 2026-05-08 10:16 | 41.24956 | -8.67933 | 194 ft | 16 kts | 349° |
| 2026-05-08 10:16 | 41.25080 | -8.67965 | 191 ft | 19 kts | 349° |
| 2026-05-08 10:16 | 41.25214 | -8.67999 | 189 ft | 22 kts | 349° |
| 2026-05-08 10:16 | 41.25351 | -8.68038 | 179 ft | 16 kts | 350° |
| 2026-05-08 10:17 | 41.25457 | -8.68064 | 176 ft | 17 kts | 348° |
| 2026-05-08 10:17 | 41.25580 | -8.68099 | 172 ft | 20 kts | 348° |
| 2026-05-08 10:17 | 41.25677 | -8.68153 | 170 ft | 12 kts | 296° |
| 2026-05-08 10:17 | 41.25670 | -8.68242 | 170 ft | 8 kts | 256° |
| 2026-05-08 10:18 | 41.25660 | -8.68294 | 171 ft | 4 kts | 256° |
| 2026-05-08 10:18 | 41.25654 | -8.68326 | 171 ft | 5 kts | 255° |
| 2026-05-08 10:18 | 41.25607 | -8.68334 | 172 ft | 9 kts | 168° |
| 2026-05-08 10:18 | 41.25515 | -8.68310 | 175 ft | 35 kts | 169° |
| 2026-05-08 10:19 | 41.25033 | -8.68186 | 194 ft | 104 kts | 169° |
| 2026-05-08 10:19 | 41.24129 | -8.67947 | 221 ft | 156 kts | 169° |
| 2026-05-08 10:19 | 41.22988 | -8.67658 | 669 ft | 167 kts | 169° |
| 2026-05-08 10:20 | 41.20707 | -8.67045 | 1883 ft | 179 kts | 168° |
| 2026-05-08 10:20 | 41.19425 | -8.66694 | 2176 ft | 197 kts | 169° |
| 2026-05-08 10:20 | 41.18026 | -8.66328 | 2551 ft | 211 kts | 169° |
| 2026-05-08 10:20 | 41.16503 | -8.65941 | 2835 ft | 236 kts | 169° |
| 2026-05-08 10:21 | 41.14817 | -8.65513 | 3240 ft | 257 kts | 169° |
| 2026-05-08 10:21 | 41.13013 | -8.65055 | 3894 ft | 265 kts | 169° |
| 2026-05-08 10:21 | 41.11211 | -8.64596 | 4836 ft | 265 kts | 172° |
| 2026-05-08 10:21 | 41.09372 | -8.64794 | 5520 ft | 271 kts | 202° |
| 2026-05-08 10:22 | 41.08277 | -8.65651 | 6021 ft | 274 kts | 223° |
| 2026-05-08 10:22 | 41.07061 | -8.68530 | 7053 ft | 275 kts | 258° |
| 2026-05-08 10:22 | 41.06817 | -8.70221 | 7583 ft | 277 kts | 259° |
| 2026-05-08 10:22 | 41.06451 | -8.72703 | 8342 ft | 280 kts | 259° |
| 2026-05-08 10:23 | 41.06072 | -8.75242 | 9084 ft | 283 kts | 259° |
| 2026-05-08 10:23 | 41.05686 | -8.77812 | 9746 ft | 287 kts | 259° |
| 2026-05-08 10:23 | 41.05293 | -8.80417 | 9952 ft | 288 kts | 258° |
| 2026-05-08 10:23 | 41.04885 | -8.83094 | 10018 ft | 310 kts | 258° |
| 2026-05-08 10:24 | 41.04453 | -8.85926 | 10012 ft | 321 kts | 258° |
| 2026-05-08 10:24 | 41.04004 | -8.88882 | 10283 ft | 335 kts | 258° |
| 2026-05-08 10:24 | 41.03539 | -8.91941 | 10852 ft | 342 kts | 258° |
| 2026-05-08 10:24 | 41.03068 | -8.95040 | 11504 ft | 345 kts | 258° |
| 2026-05-08 10:25 | 41.02590 | -8.98178 | 12151 ft | 349 kts | 258° |
| 2026-05-08 10:25 | 41.02108 | -9.01338 | 12765 ft | 352 kts | 258° |
| 2026-05-08 10:25 | 41.01618 | -9.04533 | 13393 ft | 355 kts | 258° |
| 2026-05-08 10:25 | 41.01121 | -9.07761 | 14000 ft | 359 kts | 258° |
| 2026-05-08 10:26 | 41.00618 | -9.11007 | 14586 ft | 362 kts | 258° |
| 2026-05-08 10:26 | 41.00109 | -9.14286 | 15164 ft | 365 kts | 258° |
| 2026-05-08 10:26 | 40.99597 | -9.17585 | 15724 ft | 368 kts | 258° |
| 2026-05-08 10:26 | 40.99080 | -9.20922 | 16274 ft | 371 kts | 258° |
| 2026-05-08 10:27 | 40.98566 | -9.24232 | 16800 ft | 374 kts | 258° |
| 2026-05-08 10:27 | 40.98017 | -9.27603 | 17313 ft | 377 kts | 254° |
| 2026-05-08 10:27 | 40.97018 | -9.30817 | 17805 ft | 380 kts | 240° |
| 2026-05-08 10:27 | 40.95447 | -9.33631 | 18282 ft | 383 kts | 226° |
| 2026-05-08 10:28 | 40.93387 | -9.35878 | 18762 ft | 386 kts | 212° |
| 2026-05-08 10:28 | 40.90959 | -9.37409 | 19222 ft | 389 kts | 199° |
| 2026-05-08 10:28 | 40.88388 | -9.38571 | 19679 ft | 392 kts | 199° |
| 2026-05-08 10:28 | 40.85797 | -9.39740 | 20118 ft | 394 kts | 199° |
| 2026-05-08 10:29 | 40.83190 | -9.40915 | 20583 ft | 397 kts | 199° |
| 2026-05-08 10:29 | 40.80567 | -9.42098 | 21006 ft | 399 kts | 199° |
| 2026-05-08 10:29 | 40.77928 | -9.43284 | 21419 ft | 402 kts | 199° |
| 2026-05-08 10:29 | 40.75270 | -9.44477 | 21829 ft | 404 kts | 199° |
| 2026-05-08 10:30 | 40.72595 | -9.45676 | 22223 ft | 407 kts | 199° |
| 2026-05-08 10:30 | 40.69908 | -9.46881 | 22618 ft | 409 kts | 199° |
| 2026-05-08 10:30 | 40.67205 | -9.48092 | 22998 ft | 412 kts | 199° |
| 2026-05-08 10:30 | 40.64485 | -9.49310 | 23370 ft | 414 kts | 199° |
| 2026-05-08 10:31 | 40.61750 | -9.50534 | 23739 ft | 416 kts | 199° |
| 2026-05-08 10:31 | 40.58999 | -9.51764 | 24092 ft | 419 kts | 199° |
| 2026-05-08 10:31 | 40.56231 | -9.53001 | 24447 ft | 421 kts | 199° |
| 2026-05-08 10:31 | 40.53454 | -9.54240 | 24785 ft | 423 kts | 199° |
| 2026-05-08 10:32 | 40.50663 | -9.55485 | 25103 ft | 425 kts | 199° |
| 2026-05-08 10:32 | 40.47857 | -9.56738 | 25424 ft | 427 kts | 199° |
| 2026-05-08 10:32 | 40.45035 | -9.57997 | 25739 ft | 429 kts | 199° |
| 2026-05-08 10:32 | 40.42198 | -9.59259 | 26038 ft | 431 kts | 199° |
| 2026-05-08 10:33 | 40.39351 | -9.60526 | 26353 ft | 433 kts | 199° |
| 2026-05-08 10:33 | 40.36524 | -9.61781 | 26648 ft | 435 kts | 199° |
| 2026-05-08 10:33 | 40.33649 | -9.63055 | 26941 ft | 437 kts | 199° |
| 2026-05-08 10:33 | 40.30762 | -9.64331 | 27239 ft | 439 kts | 199° |
| 2026-05-08 10:34 | 40.27861 | -9.65617 | 27519 ft | 441 kts | 199° |
| 2026-05-08 10:34 | 40.24946 | -9.66911 | 27798 ft | 443 kts | 199° |
| 2026-05-08 10:34 | 40.22022 | -9.68210 | 28068 ft | 445 kts | 199° |
| 2026-05-08 10:34 | 40.19085 | -9.69511 | 28329 ft | 446 kts | 199° |
| 2026-05-08 10:35 | 40.16136 | -9.70813 | 28581 ft | 448 kts | 199° |
| 2026-05-08 10:35 | 40.13174 | -9.72117 | 28824 ft | 450 kts | 199° |
| 2026-05-08 10:35 | 40.10194 | -9.73426 | 29060 ft | 451 kts | 199° |
| 2026-05-08 10:35 | 40.07211 | -9.74735 | 29291 ft | 453 kts | 199° |
| 2026-05-08 10:36 | 40.04219 | -9.76049 | 29517 ft | 455 kts | 199° |
| 2026-05-08 10:36 | 40.01213 | -9.77365 | 29750 ft | 456 kts | 199° |
| 2026-05-08 10:36 | 39.98198 | -9.78689 | 29963 ft | 458 kts | 199° |
| 2026-05-08 10:36 | 39.95219 | -9.80000 | 30176 ft | 459 kts | 199° |
| 2026-05-08 10:37 | 39.92186 | -9.81333 | 30476 ft | 458 kts | 199° |
| 2026-05-08 10:37 | 39.89156 | -9.82665 | 30780 ft | 457 kts | 199° |
| 2026-05-08 10:37 | 39.86138 | -9.83988 | 31077 ft | 457 kts | 199° |
| 2026-05-08 10:37 | 39.83123 | -9.85306 | 31360 ft | 456 kts | 199° |
| 2026-05-08 10:38 | 39.80117 | -9.86616 | 31635 ft | 456 kts | 199° |
| 2026-05-08 10:38 | 39.77110 | -9.87923 | 31916 ft | 455 kts | 199° |
| 2026-05-08 10:38 | 39.74145 | -9.89212 | 32193 ft | 455 kts | 199° |
| 2026-05-08 10:38 | 39.71148 | -9.90515 | 32465 ft | 454 kts | 199° |
| 2026-05-08 10:39 | 39.68155 | -9.91814 | 32731 ft | 453 kts | 199° |
| 2026-05-08 10:39 | 39.65162 | -9.93109 | 32997 ft | 453 kts | 199° |
| 2026-05-08 10:39 | 39.62174 | -9.94405 | 33253 ft | 452 kts | 199° |
| 2026-05-08 10:39 | 39.59190 | -9.95701 | 33510 ft | 452 kts | 199° |
| 2026-05-08 10:40 | 39.56210 | -9.97000 | 33754 ft | 451 kts | 199° |
| 2026-05-08 10:40 | 39.53230 | -9.98296 | 34010 ft | 451 kts | 199° |
| 2026-05-08 10:40 | 39.50248 | -9.99585 | 34267 ft | 450 kts | 199° |
| 2026-05-08 10:40 | 39.47278 | -10.00865 | 34516 ft | 450 kts | 199° |
| 2026-05-08 10:41 | 39.44312 | -10.02143 | 34755 ft | 449 kts | 199° |
| 2026-05-08 10:41 | 39.41341 | -10.03421 | 34953 ft | 449 kts | 199° |
| 2026-05-08 10:41 | 39.38379 | -10.04695 | 35013 ft | 448 kts | 199° |
| 2026-05-08 10:42 | 39.32461 | -10.07239 | 35007 ft | 447 kts | 199° |
| 2026-05-08 10:42 | 39.26591 | -10.09765 | 35008 ft | 447 kts | 199° |
| 2026-05-08 10:43 | 39.20692 | -10.12299 | 35010 ft | 447 kts | 199° |
| 2026-05-08 10:43 | 39.14785 | -10.14826 | 35006 ft | 447 kts | 198° |
| 2026-05-08 10:44 | 39.08872 | -10.17349 | 35013 ft | 447 kts | 198° |
| 2026-05-08 10:44 | 39.02962 | -10.19871 | 35015 ft | 447 kts | 198° |
| 2026-05-08 10:45 | 38.97047 | -10.22388 | 35012 ft | 447 kts | 198° |
| 2026-05-08 10:45 | 38.91132 | -10.24900 | 35011 ft | 447 kts | 198° |
| 2026-05-08 10:46 | 38.85221 | -10.27405 | 35016 ft | 447 kts | 198° |
| 2026-05-08 10:46 | 38.79347 | -10.29896 | 35012 ft | 447 kts | 198° |
| 2026-05-08 10:47 | 38.73427 | -10.32409 | 35015 ft | 447 kts | 198° |
| 2026-05-08 10:47 | 38.67512 | -10.34908 | 35015 ft | 447 kts | 198° |
| 2026-05-08 10:48 | 38.61595 | -10.37403 | 35013 ft | 447 kts | 198° |
| 2026-05-08 10:48 | 38.55673 | -10.39894 | 35015 ft | 447 kts | 198° |
| 2026-05-08 10:49 | 38.49759 | -10.42373 | 35017 ft | 447 kts | 198° |
| 2026-05-08 10:49 | 38.43876 | -10.44833 | 35015 ft | 447 kts | 198° |
| 2026-05-08 10:50 | 38.37961 | -10.47309 | 35016 ft | 447 kts | 198° |
| 2026-05-08 10:50 | 38.32048 | -10.49785 | 35017 ft | 447 kts | 198° |
| 2026-05-08 10:51 | 38.26132 | -10.52247 | 35016 ft | 447 kts | 198° |
| 2026-05-08 10:51 | 38.20214 | -10.54708 | 35013 ft | 447 kts | 198° |
| 2026-05-08 10:52 | 38.14293 | -10.57174 | 35015 ft | 447 kts | 198° |
| 2026-05-08 10:52 | 38.08373 | -10.59631 | 35018 ft | 447 kts | 198° |
| 2026-05-08 10:53 | 38.02461 | -10.62078 | 35013 ft | 447 kts | 198° |
| 2026-05-08 10:53 | 37.96580 | -10.64512 | 35017 ft | 447 kts | 198° |
| 2026-05-08 10:54 | 37.90660 | -10.66952 | 35017 ft | 447 kts | 198° |
| 2026-05-08 10:54 | 37.84734 | -10.69393 | 35014 ft | 447 kts | 198° |
| 2026-05-08 10:55 | 37.78812 | -10.71826 | 35016 ft | 447 kts | 198° |
| 2026-05-08 10:55 | 37.72891 | -10.74253 | 35016 ft | 447 kts | 198° |
| 2026-05-08 10:56 | 37.66974 | -10.76685 | 35015 ft | 447 kts | 198° |
| 2026-05-08 10:56 | 37.61058 | -10.79104 | 35014 ft | 447 kts | 198° |
| 2026-05-08 10:57 | 37.55136 | -10.81527 | 35013 ft | 447 kts | 198° |
| 2026-05-08 10:57 | 37.46301 | -10.85140 | 35011 ft | 447 kts | 198° |
| 2026-05-08 10:58 | 37.40373 | -10.87543 | 35017 ft | 447 kts | 198° |
| 2026-05-08 10:58 | 37.34457 | -10.89949 | 35012 ft | 447 kts | 198° |
| 2026-05-08 10:59 | 37.28532 | -10.92353 | 35014 ft | 447 kts | 198° |
| 2026-05-08 10:59 | 37.22610 | -10.94754 | 35011 ft | 447 kts | 198° |
| 2026-05-08 11:00 | 37.16689 | -10.97151 | 35012 ft | 447 kts | 198° |
| 2026-05-08 11:00 | 37.10762 | -10.99536 | 35012 ft | 447 kts | 198° |
| 2026-05-08 11:01 | 37.04840 | -11.01923 | 35011 ft | 447 kts | 198° |
| 2026-05-08 11:01 | 36.98919 | -11.04305 | 35012 ft | 447 kts | 198° |
| 2026-05-08 11:02 | 36.90074 | -11.07852 | 35012 ft | 447 kts | 198° |
| 2026-05-08 11:03 | 36.84156 | -11.10232 | 35014 ft | 447 kts | 198° |
| 2026-05-08 11:03 | 36.78229 | -11.12600 | 35015 ft | 447 kts | 198° |
| 2026-05-08 11:04 | 36.72306 | -11.14967 | 35013 ft | 447 kts | 198° |
| 2026-05-08 11:04 | 36.66387 | -11.17331 | 35011 ft | 447 kts | 198° |
| 2026-05-08 11:05 | 36.60466 | -11.19683 | 35013 ft | 447 kts | 198° |
| 2026-05-08 11:05 | 36.54545 | -11.22042 | 35011 ft | 447 kts | 198° |
| 2026-05-08 11:06 | 36.48622 | -11.24392 | 35016 ft | 447 kts | 198° |
| 2026-05-08 11:06 | 36.42693 | -11.26738 | 35010 ft | 447 kts | 198° |
| 2026-05-08 11:07 | 36.36775 | -11.29080 | 35009 ft | 447 kts | 198° |
| 2026-05-08 11:07 | 36.30851 | -11.31428 | 35013 ft | 447 kts | 198° |
| 2026-05-08 11:08 | 36.24928 | -11.33751 | 35008 ft | 447 kts | 198° |
| 2026-05-08 11:08 | 36.19038 | -11.36063 | 35011 ft | 447 kts | 198° |
| 2026-05-08 11:09 | 36.13111 | -11.38389 | 35006 ft | 447 kts | 198° |
| 2026-05-08 11:09 | 36.07187 | -11.40716 | 35010 ft | 447 kts | 198° |
| 2026-05-08 11:10 | 36.01259 | -11.43042 | 35010 ft | 447 kts | 198° |
| 2026-05-08 11:10 | 35.95410 | -11.45627 | 35009 ft | 446 kts | 207° |
| 2026-05-08 11:11 | 35.89874 | -11.49095 | 35012 ft | 446 kts | 207° |
| 2026-05-08 11:11 | 35.84331 | -11.52557 | 35011 ft | 446 kts | 207° |
| 2026-05-08 11:12 | 35.78824 | -11.55992 | 35004 ft | 446 kts | 207° |
| 2026-05-08 11:12 | 35.73277 | -11.59437 | 35007 ft | 446 kts | 207° |
| 2026-05-08 11:13 | 35.68632 | -11.62315 | 35007 ft | 446 kts | 207° |
| 2026-05-08 11:13 | 35.63115 | -11.65728 | 35006 ft | 447 kts | 207° |
| 2026-05-08 11:14 | 35.57573 | -11.69172 | 35011 ft | 447 kts | 207° |
| 2026-05-08 11:14 | 35.52025 | -11.72614 | 35008 ft | 447 kts | 207° |
| 2026-05-08 11:15 | 35.46474 | -11.76046 | 35009 ft | 447 kts | 207° |
| 2026-05-08 11:15 | 35.40924 | -11.79470 | 35010 ft | 447 kts | 207° |
| 2026-05-08 11:16 | 35.35364 | -11.82892 | 35016 ft | 447 kts | 207° |
| 2026-05-08 11:16 | 35.29806 | -11.86309 | 35016 ft | 447 kts | 207° |
| 2026-05-08 11:17 | 35.24285 | -11.89698 | 35014 ft | 447 kts | 207° |
| 2026-05-08 11:17 | 35.18724 | -11.93106 | 35013 ft | 447 kts | 207° |
| 2026-05-08 11:18 | 35.13165 | -11.96510 | 35017 ft | 447 kts | 207° |
| 2026-05-08 11:18 | 35.07610 | -11.99911 | 35016 ft | 447 kts | 207° |
| 2026-05-08 11:19 | 35.02054 | -12.03303 | 35015 ft | 446 kts | 207° |
| 2026-05-08 11:19 | 34.96498 | -12.06689 | 35012 ft | 447 kts | 207° |
| 2026-05-08 11:20 | 34.90939 | -12.10071 | 35013 ft | 447 kts | 207° |
| 2026-05-08 11:20 | 34.85379 | -12.13448 | 35012 ft | 447 kts | 207° |
| 2026-05-08 11:21 | 34.79811 | -12.16821 | 35010 ft | 446 kts | 206° |
| 2026-05-08 11:21 | 34.74256 | -12.20186 | 35011 ft | 446 kts | 207° |
| 2026-05-08 11:22 | 34.68737 | -12.23526 | 35007 ft | 446 kts | 206° |
| 2026-05-08 11:22 | 34.63177 | -12.26887 | 35004 ft | 446 kts | 206° |
| 2026-05-08 11:23 | 34.57613 | -12.30236 | 35009 ft | 446 kts | 206° |
| 2026-05-08 11:23 | 34.52051 | -12.33580 | 35004 ft | 446 kts | 206° |
| 2026-05-08 11:24 | 34.46482 | -12.36921 | 35003 ft | 446 kts | 206° |
| 2026-05-08 11:24 | 34.40919 | -12.40262 | 35006 ft | 446 kts | 206° |
| 2026-05-08 11:25 | 34.35353 | -12.43601 | 35004 ft | 446 kts | 206° |
| 2026-05-08 11:25 | 34.29787 | -12.46936 | 35010 ft | 446 kts | 206° |
| 2026-05-08 11:26 | 34.24219 | -12.50261 | 35005 ft | 447 kts | 206° |
| 2026-05-08 11:26 | 34.18648 | -12.53585 | 35007 ft | 447 kts | 206° |
| 2026-05-08 11:27 | 34.13107 | -12.56881 | 35007 ft | 447 kts | 206° |
| 2026-05-08 11:27 | 34.07533 | -12.60192 | 35016 ft | 446 kts | 206° |
| 2026-05-08 11:28 | 34.01959 | -12.63510 | 35018 ft | 446 kts | 206° |
| 2026-05-08 11:28 | 33.96390 | -12.66818 | 35009 ft | 446 kts | 206° |
| 2026-05-08 11:29 | 33.90816 | -12.70114 | 35006 ft | 446 kts | 206° |
| 2026-05-08 11:29 | 33.85244 | -12.73410 | 35008 ft | 446 kts | 206° |
| 2026-05-08 11:30 | 33.79670 | -12.76708 | 35008 ft | 446 kts | 206° |
| 2026-05-08 11:30 | 33.74101 | -12.79989 | 35002 ft | 446 kts | 206° |
| 2026-05-08 11:31 | 33.68519 | -12.83266 | 35001 ft | 446 kts | 206° |
| 2026-05-08 11:31 | 33.62943 | -12.86550 | 35004 ft | 446 kts | 206° |
| 2026-05-08 11:32 | 33.57401 | -12.89801 | 35005 ft | 446 kts | 206° |
| 2026-05-08 11:32 | 33.51819 | -12.93070 | 35002 ft | 446 kts | 206° |
| 2026-05-08 11:33 | 33.46236 | -12.96333 | 35000 ft | 446 kts | 206° |
| 2026-05-08 11:33 | 33.40658 | -12.99600 | 35005 ft | 446 kts | 206° |
| 2026-05-08 11:34 | 33.35082 | -13.02861 | 34999 ft | 446 kts | 206° |
| 2026-05-08 11:34 | 33.29504 | -13.06107 | 34998 ft | 446 kts | 206° |
| 2026-05-08 11:35 | 33.23930 | -13.09355 | 35009 ft | 446 kts | 206° |
| 2026-05-08 11:35 | 33.18388 | -13.12576 | 35000 ft | 446 kts | 206° |
| 2026-05-08 11:36 | 33.12805 | -13.15811 | 35004 ft | 446 kts | 206° |
| 2026-05-08 11:36 | 33.07220 | -13.19058 | 35006 ft | 446 kts | 206° |
| 2026-05-08 11:37 | 33.01638 | -13.22294 | 35004 ft | 446 kts | 206° |
| 2026-05-08 11:37 | 32.96052 | -13.25519 | 35005 ft | 446 kts | 206° |
| 2026-05-08 11:38 | 32.90465 | -13.28735 | 35003 ft | 446 kts | 206° |
| 2026-05-08 11:38 | 32.84880 | -13.31954 | 35007 ft | 446 kts | 206° |
| 2026-05-08 11:39 | 32.79291 | -13.35164 | 35001 ft | 446 kts | 206° |
| 2026-05-08 11:39 | 32.73728 | -13.38354 | 35011 ft | 446 kts | 206° |
| 2026-05-08 11:40 | 32.68141 | -13.41572 | 35011 ft | 447 kts | 206° |
| 2026-05-08 11:40 | 32.62538 | -13.44784 | 35009 ft | 447 kts | 206° |
| 2026-05-08 11:41 | 32.56937 | -13.47986 | 35011 ft | 447 kts | 206° |
| 2026-05-08 11:41 | 32.51335 | -13.51190 | 35013 ft | 447 kts | 206° |
| 2026-05-08 11:42 | 32.45737 | -13.54383 | 35014 ft | 446 kts | 206° |
| 2026-05-08 11:42 | 32.40171 | -13.57552 | 35017 ft | 446 kts | 206° |
| 2026-05-08 11:43 | 32.34571 | -13.60735 | 35011 ft | 446 kts | 206° |
| 2026-05-08 11:43 | 32.28981 | -13.63919 | 35014 ft | 446 kts | 206° |
| 2026-05-08 11:44 | 32.23389 | -13.67087 | 35005 ft | 446 kts | 206° |
| 2026-05-08 11:44 | 32.17788 | -13.70256 | 35009 ft | 446 kts | 206° |
| 2026-05-08 11:45 | 32.12200 | -13.73434 | 35009 ft | 446 kts | 206° |
| 2026-05-08 11:45 | 32.06608 | -13.76603 | 35002 ft | 446 kts | 206° |
| 2026-05-08 11:46 | 32.01013 | -13.79757 | 34998 ft | 446 kts | 206° |
| 2026-05-08 11:46 | 31.95420 | -13.82907 | 35004 ft | 446 kts | 206° |
| 2026-05-08 11:47 | 31.89818 | -13.86059 | 35002 ft | 446 kts | 206° |
| 2026-05-08 11:47 | 31.84252 | -13.89183 | 35011 ft | 446 kts | 206° |
| 2026-05-08 11:48 | 31.78648 | -13.92334 | 35006 ft | 446 kts | 206° |
| 2026-05-08 11:48 | 31.73040 | -13.95480 | 35004 ft | 446 kts | 206° |
| 2026-05-08 11:49 | 31.67434 | -13.98618 | 35009 ft | 446 kts | 206° |
| 2026-05-08 11:49 | 31.61831 | -14.01746 | 35008 ft | 446 kts | 206° |
| 2026-05-08 11:50 | 31.56259 | -14.04857 | 35009 ft | 446 kts | 206° |
| 2026-05-08 11:50 | 31.50653 | -14.07987 | 35008 ft | 446 kts | 206° |
| 2026-05-08 11:51 | 31.45047 | -14.11108 | 35016 ft | 446 kts | 205° |
| 2026-05-08 11:51 | 31.39440 | -14.14227 | 35008 ft | 446 kts | 205° |
| 2026-05-08 11:52 | 31.33830 | -14.17344 | 35012 ft | 446 kts | 205° |
| 2026-05-08 11:52 | 31.28219 | -14.20453 | 35010 ft | 446 kts | 205° |
| 2026-05-08 11:53 | 31.22613 | -14.23564 | 35012 ft | 446 kts | 205° |
| 2026-05-08 11:53 | 31.17004 | -14.26668 | 35009 ft | 446 kts | 205° |
| 2026-05-08 11:54 | 31.11391 | -14.29764 | 35013 ft | 446 kts | 205° |
| 2026-05-08 11:54 | 31.05813 | -14.32837 | 35017 ft | 446 kts | 205° |
| 2026-05-08 11:55 | 31.00203 | -14.35935 | 35011 ft | 446 kts | 205° |
| 2026-05-08 11:55 | 30.94593 | -14.39026 | 35011 ft | 446 kts | 205° |
| 2026-05-08 11:56 | 30.88975 | -14.42105 | 35010 ft | 446 kts | 206° |
| 2026-05-08 11:56 | 30.83405 | -14.45283 | 35011 ft | 446 kts | 207° |
| 2026-05-08 11:57 | 30.77866 | -14.48542 | 35010 ft | 446 kts | 207° |
| 2026-05-08 11:57 | 30.72321 | -14.51790 | 35010 ft | 446 kts | 207° |
| 2026-05-08 11:58 | 30.66762 | -14.54997 | 35013 ft | 446 kts | 206° |
| 2026-05-08 11:58 | 30.61193 | -14.58189 | 35014 ft | 446 kts | 206° |
| 2026-05-08 11:59 | 30.52850 | -14.62983 | 35017 ft | 446 kts | 206° |
| 2026-05-08 11:59 | 30.47284 | -14.66185 | 35012 ft | 446 kts | 206° |
| 2026-05-08 12:00 | 30.41756 | -14.69345 | 35015 ft | 446 kts | 206° |
| 2026-05-08 12:00 | 30.36189 | -14.72530 | 35013 ft | 446 kts | 206° |
| 2026-05-08 12:01 | 30.30623 | -14.75714 | 35015 ft | 446 kts | 206° |
| 2026-05-08 12:01 | 30.25061 | -14.78895 | 35018 ft | 446 kts | 206° |
| 2026-05-08 12:02 | 30.19492 | -14.82076 | 35015 ft | 446 kts | 206° |
| 2026-05-08 12:02 | 30.13924 | -14.85246 | 35016 ft | 446 kts | 206° |
| 2026-05-08 12:03 | 30.08355 | -14.88418 | 35014 ft | 446 kts | 206° |
| 2026-05-08 12:03 | 30.03724 | -14.91054 | 35016 ft | 446 kts | 206° |
| 2026-05-08 12:04 | 29.97242 | -14.94729 | 35014 ft | 446 kts | 206° |
| 2026-05-08 12:04 | 29.92568 | -14.97377 | 35020 ft | 446 kts | 206° |
| 2026-05-08 12:05 | 29.86993 | -15.00533 | 35015 ft | 446 kts | 206° |
| 2026-05-08 12:05 | 29.81462 | -15.03669 | 35018 ft | 446 kts | 206° |
| 2026-05-08 12:06 | 29.75891 | -15.06819 | 35015 ft | 446 kts | 206° |
| 2026-05-08 12:06 | 29.70318 | -15.09967 | 35016 ft | 446 kts | 206° |
| 2026-05-08 12:07 | 29.64739 | -15.13105 | 35016 ft | 446 kts | 206° |
| 2026-05-08 12:07 | 29.59161 | -15.16239 | 35018 ft | 446 kts | 206° |
| 2026-05-08 12:08 | 29.53587 | -15.19378 | 35016 ft | 446 kts | 206° |
| 2026-05-08 12:08 | 29.48006 | -15.22512 | 35016 ft | 446 kts | 206° |
| 2026-05-08 12:09 | 29.42421 | -15.25635 | 35017 ft | 446 kts | 206° |
| 2026-05-08 12:09 | 29.36841 | -15.28756 | 35021 ft | 446 kts | 206° |
| 2026-05-08 12:10 | 29.31261 | -15.31882 | 35021 ft | 446 kts | 206° |
| 2026-05-08 12:10 | 29.25717 | -15.34982 | 35019 ft | 446 kts | 206° |
| 2026-05-08 12:11 | 29.20139 | -15.38095 | 35018 ft | 446 kts | 206° |
| 2026-05-08 12:11 | 29.14560 | -15.41204 | 35020 ft | 446 kts | 206° |
| 2026-05-08 12:12 | 29.08979 | -15.44307 | 35020 ft | 446 kts | 206° |
| 2026-05-08 12:12 | 29.03398 | -15.47411 | 35019 ft | 446 kts | 206° |
| 2026-05-08 12:13 | 28.97811 | -15.50519 | 35021 ft | 446 kts | 206° |
| 2026-05-08 12:13 | 28.92229 | -15.53610 | 35017 ft | 446 kts | 206° |
| 2026-05-08 12:14 | 28.86641 | -15.56697 | 35017 ft | 446 kts | 206° |
| 2026-05-08 12:14 | 28.81051 | -15.59790 | 35015 ft | 446 kts | 206° |
| 2026-05-08 12:15 | 28.75466 | -15.62879 | 35017 ft | 446 kts | 206° |
| 2026-05-08 12:15 | 28.69916 | -15.65946 | 35014 ft | 446 kts | 206° |
| 2026-05-08 12:16 | 28.64334 | -15.69030 | 35016 ft | 446 kts | 206° |
| 2026-05-08 12:16 | 28.58744 | -15.72102 | 35014 ft | 446 kts | 206° |
| 2026-05-08 12:17 | 28.53155 | -15.75177 | 35018 ft | 446 kts | 206° |
| 2026-05-08 12:17 | 28.47569 | -15.78249 | 35018 ft | 446 kts | 206° |
| 2026-05-08 12:18 | 28.41985 | -15.81315 | 35014 ft | 446 kts | 206° |
| 2026-05-08 12:18 | 28.36396 | -15.84374 | 35013 ft | 446 kts | 206° |
| 2026-05-08 12:19 | 28.30844 | -15.87414 | 35017 ft | 446 kts | 206° |
| 2026-05-08 12:19 | 28.25255 | -15.90478 | 35013 ft | 446 kts | 206° |
| 2026-05-08 12:20 | 28.19667 | -15.93527 | 35015 ft | 446 kts | 206° |
| 2026-05-08 12:20 | 28.14075 | -15.96572 | 35014 ft | 446 kts | 206° |
| 2026-05-08 12:21 | 28.08478 | -15.99624 | 35016 ft | 446 kts | 206° |
| 2026-05-08 12:21 | 28.02896 | -16.02667 | 35011 ft | 446 kts | 206° |
| 2026-05-08 12:22 | 27.97337 | -16.05688 | 35019 ft | 445 kts | 206° |
| 2026-05-08 12:22 | 27.91738 | -16.08721 | 35011 ft | 445 kts | 206° |
| 2026-05-08 12:23 | 27.86139 | -16.11753 | 35014 ft | 445 kts | 206° |
| 2026-05-08 12:23 | 27.80546 | -16.14784 | 35014 ft | 445 kts | 206° |
| 2026-05-08 12:24 | 27.74961 | -16.17813 | 35012 ft | 445 kts | 206° |
| 2026-05-08 12:24 | 27.69378 | -16.20844 | 35016 ft | 445 kts | 206° |
| 2026-05-08 12:25 | 27.63784 | -16.23859 | 35015 ft | 445 kts | 206° |
| 2026-05-08 12:25 | 27.58224 | -16.26854 | 35013 ft | 445 kts | 206° |
| 2026-05-08 12:26 | 27.52623 | -16.29869 | 35008 ft | 445 kts | 206° |
| 2026-05-08 12:26 | 27.47029 | -16.32882 | 35017 ft | 445 kts | 206° |
| 2026-05-08 12:27 | 27.41438 | -16.35887 | 35007 ft | 445 kts | 206° |
| 2026-05-08 12:27 | 27.35843 | -16.38897 | 35016 ft | 445 kts | 206° |
| 2026-05-08 12:28 | 27.30257 | -16.41903 | 35014 ft | 445 kts | 206° |
| 2026-05-08 12:28 | 27.24654 | -16.44882 | 35012 ft | 445 kts | 205° |
| 2026-05-08 12:29 | 27.19088 | -16.47845 | 35008 ft | 445 kts | 206° |
| 2026-05-08 12:29 | 27.13497 | -16.50839 | 35012 ft | 445 kts | 206° |
| 2026-05-08 12:30 | 27.07902 | -16.53833 | 35013 ft | 445 kts | 206° |
| 2026-05-08 12:30 | 27.02303 | -16.56822 | 35010 ft | 445 kts | 205° |
| 2026-05-08 12:31 | 26.96706 | -16.59793 | 35014 ft | 445 kts | 205° |
| 2026-05-08 12:31 | 26.91107 | -16.62765 | 35009 ft | 445 kts | 205° |
| 2026-05-08 12:32 | 26.85508 | -16.65741 | 35008 ft | 445 kts | 205° |
| 2026-05-08 12:32 | 26.79912 | -16.68716 | 35005 ft | 445 kts | 206° |
| 2026-05-08 12:33 | 26.74315 | -16.71689 | 35009 ft | 445 kts | 206° |
| 2026-05-08 12:33 | 26.68763 | -16.74640 | 35013 ft | 445 kts | 205° |
| 2026-05-08 12:34 | 26.63159 | -16.77610 | 35015 ft | 445 kts | 205° |
| 2026-05-08 12:34 | 26.57547 | -16.80577 | 35229 ft | 447 kts | 205° |
| 2026-05-08 12:35 | 26.54732 | -16.82064 | 35470 ft | 447 kts | 205° |
| 2026-05-08 12:35 | 26.51915 | -16.83551 | 35711 ft | 447 kts | 205° |
| 2026-05-08 12:35 | 26.49106 | -16.85030 | 35946 ft | 446 kts | 205° |
| 2026-05-08 12:35 | 26.46298 | -16.86509 | 36171 ft | 446 kts | 205° |
| 2026-05-08 12:36 | 26.43490 | -16.87987 | 36382 ft | 446 kts | 205° |
| 2026-05-08 12:36 | 26.40689 | -16.89463 | 36584 ft | 446 kts | 205° |
| 2026-05-08 12:36 | 26.37877 | -16.90940 | 36776 ft | 446 kts | 205° |
| 2026-05-08 12:36 | 26.35075 | -16.92415 | 36952 ft | 446 kts | 205° |
| 2026-05-08 12:37 | 26.29461 | -16.95360 | 37009 ft | 446 kts | 205° |
| 2026-05-08 12:37 | 26.23886 | -16.98288 | 37009 ft | 446 kts | 205° |
| 2026-05-08 12:38 | 26.18238 | -17.01255 | 37009 ft | 446 kts | 205° |
| 2026-05-08 12:38 | 26.12629 | -17.04195 | 37009 ft | 446 kts | 205° |
| 2026-05-08 12:39 | 26.07013 | -17.07131 | 37009 ft | 446 kts | 205° |
| 2026-05-08 12:39 | 26.01403 | -17.10062 | 37010 ft | 446 kts | 205° |
| 2026-05-08 12:40 | 25.95820 | -17.12980 | 37011 ft | 446 kts | 205° |
| 2026-05-08 12:40 | 25.90199 | -17.15916 | 37011 ft | 446 kts | 205° |
| 2026-05-08 12:41 | 25.84579 | -17.18848 | 37012 ft | 446 kts | 205° |
| 2026-05-08 12:41 | 25.78965 | -17.21770 | 37012 ft | 446 kts | 205° |
| 2026-05-08 12:42 | 25.73352 | -17.24688 | 37012 ft | 446 kts | 205° |
| 2026-05-08 12:42 | 25.67731 | -17.27603 | 37012 ft | 446 kts | 205° |
| 2026-05-08 12:43 | 25.62151 | -17.30499 | 37011 ft | 446 kts | 205° |
| 2026-05-08 12:43 | 25.56541 | -17.33418 | 37011 ft | 446 kts | 205° |
| 2026-05-08 12:44 | 25.50919 | -17.36331 | 37011 ft | 446 kts | 205° |
| 2026-05-08 12:44 | 25.45298 | -17.39233 | 37012 ft | 446 kts | 205° |
| 2026-05-08 12:45 | 25.39678 | -17.42131 | 37012 ft | 446 kts | 205° |
| 2026-05-08 12:45 | 25.34058 | -17.45036 | 37012 ft | 446 kts | 205° |
| 2026-05-08 12:46 | 25.28435 | -17.47942 | 37012 ft | 446 kts | 205° |
| 2026-05-08 12:46 | 25.22816 | -17.50839 | 37012 ft | 446 kts | 205° |
| 2026-05-08 12:47 | 25.17192 | -17.53730 | 37013 ft | 446 kts | 205° |
| 2026-05-08 12:47 | 25.11561 | -17.56625 | 37013 ft | 446 kts | 205° |
| 2026-05-08 12:48 | 25.05978 | -17.59501 | 37013 ft | 446 kts | 205° |
| 2026-05-08 12:48 | 25.00356 | -17.62405 | 37013 ft | 446 kts | 208° |
| 2026-05-08 12:49 | 24.95066 | -17.65968 | 37013 ft | 445 kts | 212° |
| 2026-05-08 12:49 | 24.89817 | -17.69599 | 37013 ft | 445 kts | 212° |
| 2026-05-08 12:50 | 24.84562 | -17.73228 | 37013 ft | 445 kts | 212° |
| 2026-05-08 12:50 | 24.80193 | -17.76245 | 37013 ft | 445 kts | 212° |
| 2026-05-08 12:51 | 24.72307 | -17.81659 | 37014 ft | 446 kts | 212° |
| 2026-05-08 12:52 | 24.67033 | -17.85280 | 37015 ft | 446 kts | 212° |
| 2026-05-08 12:52 | 24.59177 | -17.90666 | 37015 ft | 446 kts | 212° |
| 2026-05-08 12:53 | 24.53912 | -17.94283 | 37015 ft | 446 kts | 212° |
| 2026-05-08 12:53 | 24.48656 | -17.97890 | 37015 ft | 446 kts | 212° |
| 2026-05-08 12:54 | 24.43395 | -18.01494 | 37015 ft | 446 kts | 212° |
| 2026-05-08 12:54 | 24.38128 | -18.05097 | 37016 ft | 446 kts | 212° |
| 2026-05-08 12:55 | 24.32861 | -18.08698 | 37016 ft | 446 kts | 212° |
| 2026-05-08 12:55 | 24.27601 | -18.12291 | 37015 ft | 445 kts | 212° |
| 2026-05-08 12:56 | 24.22332 | -18.15872 | 37015 ft | 446 kts | 212° |
| 2026-05-08 12:56 | 24.17062 | -18.19452 | 37015 ft | 446 kts | 212° |
| 2026-05-08 12:57 | 24.11801 | -18.23035 | 37014 ft | 445 kts | 212° |
| 2026-05-08 12:57 | 24.06571 | -18.26593 | 37013 ft | 445 kts | 212° |
| 2026-05-08 12:58 | 24.01306 | -18.30167 | 37012 ft | 445 kts | 212° |
| 2026-05-08 12:58 | 23.96036 | -18.33739 | 37013 ft | 446 kts | 212° |
| 2026-05-08 12:59 | 23.90766 | -18.37308 | 37015 ft | 446 kts | 212° |
| 2026-05-08 12:59 | 23.85488 | -18.40874 | 37016 ft | 446 kts | 212° |
| 2026-05-08 13:00 | 23.80219 | -18.44446 | 37016 ft | 446 kts | 212° |
| 2026-05-08 13:00 | 23.74949 | -18.48014 | 37015 ft | 445 kts | 212° |
| 2026-05-08 13:01 | 23.69678 | -18.51573 | 37013 ft | 445 kts | 212° |
| 2026-05-08 13:01 | 23.64409 | -18.55125 | 37011 ft | 445 kts | 212° |
| 2026-05-08 13:02 | 23.59144 | -18.58674 | 37008 ft | 445 kts | 212° |
| 2026-05-08 13:02 | 23.53909 | -18.62191 | 37006 ft | 445 kts | 212° |
| 2026-05-08 13:03 | 23.48645 | -18.65730 | 37004 ft | 445 kts | 212° |
| 2026-05-08 13:03 | 23.43367 | -18.69279 | 37004 ft | 445 kts | 212° |
| 2026-05-08 13:04 | 23.38096 | -18.72813 | 37005 ft | 445 kts | 212° |
| 2026-05-08 13:04 | 23.32828 | -18.76353 | 37007 ft | 445 kts | 212° |
| 2026-05-08 13:05 | 23.27549 | -18.79884 | 37008 ft | 445 kts | 212° |
| 2026-05-08 13:05 | 23.22263 | -18.83413 | 37010 ft | 445 kts | 212° |
| 2026-05-08 13:06 | 23.16985 | -18.86948 | 37011 ft | 445 kts | 212° |
| 2026-05-08 13:06 | 23.11735 | -18.90458 | 37012 ft | 445 kts | 212° |
| 2026-05-08 13:07 | 23.06448 | -18.93983 | 37013 ft | 445 kts | 212° |
| 2026-05-08 13:07 | 23.01164 | -18.97505 | 37013 ft | 445 kts | 212° |
| 2026-05-08 13:08 | 22.95881 | -19.01025 | 37012 ft | 445 kts | 212° |
| 2026-05-08 13:08 | 22.90602 | -19.04543 | 37012 ft | 445 kts | 212° |
| 2026-05-08 13:09 | 22.85317 | -19.08055 | 37010 ft | 445 kts | 212° |
| 2026-05-08 13:09 | 22.80034 | -19.11563 | 37009 ft | 445 kts | 212° |
| 2026-05-08 13:10 | 22.74789 | -19.15047 | 37008 ft | 445 kts | 212° |
| 2026-05-08 13:10 | 22.69500 | -19.18545 | 37006 ft | 445 kts | 212° |
| 2026-05-08 13:11 | 22.64217 | -19.22048 | 37005 ft | 445 kts | 212° |
| 2026-05-08 13:11 | 22.58933 | -19.25554 | 37004 ft | 445 kts | 212° |
| 2026-05-08 13:12 | 22.53654 | -19.29042 | 37004 ft | 445 kts | 212° |
| 2026-05-08 13:12 | 22.48377 | -19.32532 | 37004 ft | 445 kts | 212° |
| 2026-05-08 13:13 | 22.43093 | -19.36023 | 37004 ft | 445 kts | 211° |
| 2026-05-08 13:13 | 22.37838 | -19.39480 | 37005 ft | 445 kts | 211° |
| 2026-05-08 13:14 | 22.32556 | -19.42964 | 37006 ft | 445 kts | 211° |
| 2026-05-08 13:14 | 22.27266 | -19.46443 | 37007 ft | 445 kts | 211° |
| 2026-05-08 13:15 | 22.21974 | -19.49923 | 37008 ft | 445 kts | 211° |
| 2026-05-08 13:15 | 22.16680 | -19.53398 | 37009 ft | 445 kts | 211° |
| 2026-05-08 13:16 | 22.11381 | -19.56872 | 37011 ft | 445 kts | 211° |
| 2026-05-08 13:16 | 22.06089 | -19.60345 | 37011 ft | 445 kts | 211° |
| 2026-05-08 13:17 | 22.00792 | -19.63816 | 37012 ft | 445 kts | 211° |
| 2026-05-08 13:17 | 21.95492 | -19.67287 | 37014 ft | 446 kts | 211° |
| 2026-05-08 13:18 | 21.90190 | -19.70764 | 37016 ft | 446 kts | 211° |
| 2026-05-08 13:18 | 21.84889 | -19.74229 | 37018 ft | 446 kts | 211° |
| 2026-05-08 13:19 | 21.79618 | -19.77670 | 37017 ft | 446 kts | 211° |
| 2026-05-08 13:19 | 21.74320 | -19.81130 | 37016 ft | 445 kts | 211° |
| 2026-05-08 13:20 | 21.69011 | -19.84585 | 37016 ft | 446 kts | 211° |
| 2026-05-08 13:20 | 21.63703 | -19.88032 | 37016 ft | 446 kts | 211° |
| 2026-05-08 13:21 | 21.58403 | -19.91483 | 37016 ft | 445 kts | 211° |
| 2026-05-08 13:21 | 21.53104 | -19.94935 | 37016 ft | 446 kts | 211° |
| 2026-05-08 13:22 | 21.47795 | -19.98379 | 37015 ft | 445 kts | 211° |
| 2026-05-08 13:22 | 21.42491 | -20.01816 | 37015 ft | 445 kts | 211° |
| 2026-05-08 13:23 | 21.37184 | -20.05262 | 37015 ft | 445 kts | 211° |
| 2026-05-08 13:23 | 21.31884 | -20.08697 | 37014 ft | 445 kts | 211° |
| 2026-05-08 13:24 | 21.26584 | -20.12139 | 37013 ft | 445 kts | 211° |
| 2026-05-08 13:24 | 21.21278 | -20.15574 | 37012 ft | 445 kts | 211° |
| 2026-05-08 13:25 | 21.16002 | -20.18972 | 37012 ft | 445 kts | 211° |
| 2026-05-08 13:25 | 21.10692 | -20.22393 | 37012 ft | 445 kts | 211° |
| 2026-05-08 13:26 | 21.05387 | -20.25823 | 37012 ft | 445 kts | 211° |
| 2026-05-08 13:26 | 21.00080 | -20.29253 | 37013 ft | 445 kts | 211° |
| 2026-05-08 13:27 | 20.94773 | -20.32676 | 37014 ft | 445 kts | 211° |
| 2026-05-08 13:27 | 20.89460 | -20.36089 | 37015 ft | 445 kts | 211° |
| 2026-05-08 13:28 | 20.84146 | -20.39500 | 37016 ft | 446 kts | 211° |
| 2026-05-08 13:28 | 20.78834 | -20.42923 | 37017 ft | 446 kts | 211° |
| 2026-05-08 13:29 | 20.73517 | -20.46338 | 37018 ft | 446 kts | 211° |
| 2026-05-08 13:29 | 20.68198 | -20.49742 | 37018 ft | 446 kts | 211° |
| 2026-05-08 13:30 | 20.62911 | -20.53122 | 37019 ft | 446 kts | 211° |
| 2026-05-08 13:30 | 20.57595 | -20.56526 | 37019 ft | 446 kts | 211° |
| 2026-05-08 13:31 | 20.52277 | -20.59933 | 37020 ft | 446 kts | 211° |
| 2026-05-08 13:31 | 20.46957 | -20.63345 | 37022 ft | 446 kts | 211° |
| 2026-05-08 13:32 | 20.41632 | -20.66743 | 37023 ft | 446 kts | 211° |
| 2026-05-08 13:32 | 20.36305 | -20.70136 | 37022 ft | 446 kts | 211° |
| 2026-05-08 13:33 | 20.30975 | -20.73525 | 37021 ft | 446 kts | 211° |
| 2026-05-08 13:33 | 20.25652 | -20.76911 | 37021 ft | 446 kts | 211° |
| 2026-05-08 13:34 | 20.20321 | -20.80294 | 37022 ft | 446 kts | 211° |
| 2026-05-08 13:34 | 20.15022 | -20.83653 | 37023 ft | 446 kts | 211° |
| 2026-05-08 13:35 | 20.09690 | -20.87036 | 37024 ft | 446 kts | 211° |
| 2026-05-08 13:35 | 20.04359 | -20.90415 | 37024 ft | 446 kts | 211° |
| 2026-05-08 13:36 | 19.99023 | -20.93789 | 37023 ft | 446 kts | 211° |
| 2026-05-08 13:36 | 19.93695 | -20.97166 | 37022 ft | 446 kts | 211° |
| 2026-05-08 13:37 | 19.88371 | -21.00542 | 37021 ft | 446 kts | 211° |
| 2026-05-08 13:37 | 19.83034 | -21.03906 | 37019 ft | 445 kts | 211° |
| 2026-05-08 13:38 | 19.77709 | -21.07266 | 37017 ft | 445 kts | 211° |
| 2026-05-08 13:38 | 19.73283 | -21.10055 | 37017 ft | 445 kts | 211° |
| 2026-05-08 13:39 | 19.67952 | -21.13418 | 37018 ft | 445 kts | 211° |
| 2026-05-08 13:39 | 19.62626 | -21.16776 | 37017 ft | 445 kts | 211° |
| 2026-05-08 13:40 | 19.57286 | -21.20126 | 37016 ft | 445 kts | 211° |
| 2026-05-08 13:40 | 19.51962 | -21.23481 | 37015 ft | 445 kts | 211° |
| 2026-05-08 13:41 | 19.46674 | -21.26800 | 37014 ft | 445 kts | 211° |
| 2026-05-08 13:41 | 19.41310 | -21.30169 | 37014 ft | 445 kts | 211° |
| 2026-05-08 13:42 | 19.36023 | -21.33496 | 37013 ft | 445 kts | 211° |
| 2026-05-08 13:42 | 19.30693 | -21.36831 | 37014 ft | 445 kts | 211° |
| 2026-05-08 13:43 | 19.25357 | -21.40170 | 37016 ft | 445 kts | 211° |
| 2026-05-08 13:43 | 19.20021 | -21.43508 | 37017 ft | 445 kts | 211° |
| 2026-05-08 13:44 | 19.14696 | -21.46850 | 37016 ft | 445 kts | 211° |
| 2026-05-08 13:44 | 19.09363 | -21.50181 | 37014 ft | 445 kts | 211° |
| 2026-05-08 13:45 | 19.04031 | -21.53504 | 37012 ft | 445 kts | 211° |
| 2026-05-08 13:45 | 18.98733 | -21.56802 | 37010 ft | 445 kts | 211° |
| 2026-05-08 13:46 | 18.93408 | -21.60127 | 37011 ft | 445 kts | 211° |
| 2026-05-08 13:46 | 18.88075 | -21.63458 | 37013 ft | 445 kts | 211° |
| 2026-05-08 13:47 | 18.82739 | -21.66777 | 37014 ft | 445 kts | 211° |
| 2026-05-08 13:47 | 18.77406 | -21.70095 | 37015 ft | 445 kts | 211° |
| 2026-05-08 13:48 | 18.72067 | -21.73417 | 37016 ft | 445 kts | 211° |
| 2026-05-08 13:48 | 18.66724 | -21.76735 | 37018 ft | 445 kts | 211° |
| 2026-05-08 13:49 | 18.61385 | -21.80049 | 37018 ft | 445 kts | 211° |
| 2026-05-08 13:49 | 18.56084 | -21.83338 | 37017 ft | 445 kts | 211° |
| 2026-05-08 13:50 | 18.50739 | -21.86650 | 37019 ft | 446 kts | 211° |
| 2026-05-08 13:50 | 18.45397 | -21.89962 | 37021 ft | 446 kts | 211° |
| 2026-05-08 13:51 | 18.40047 | -21.93273 | 37021 ft | 446 kts | 211° |
| 2026-05-08 13:51 | 18.34699 | -21.96579 | 37016 ft | 446 kts | 211° |
| 2026-05-08 13:52 | 18.29339 | -21.99887 | 37015 ft | 446 kts | 211° |
| 2026-05-08 13:52 | 18.23983 | -22.03195 | 37016 ft | 447 kts | 211° |
| 2026-05-08 13:53 | 18.18625 | -22.06506 | 37001 ft | 447 kts | 211° |
| 2026-05-08 13:53 | 18.15931 | -22.08171 | 36188 ft | 453 kts | 211° |
| 2026-05-08 13:53 | 18.13194 | -22.09862 | 35185 ft | 460 kts | 211° |
| 2026-05-08 13:54 | 18.10418 | -22.11573 | 34317 ft | 463 kts | 211° |
| 2026-05-08 13:54 | 18.07666 | -22.13267 | 33959 ft | 454 kts | 210° |
| 2026-05-08 13:54 | 18.04956 | -22.14933 | 33454 ft | 449 kts | 210° |
| 2026-05-08 13:54 | 18.02278 | -22.16579 | 32951 ft | 443 kts | 211° |
| 2026-05-08 13:55 | 17.99640 | -22.18215 | 32419 ft | 439 kts | 211° |
| 2026-05-08 13:55 | 17.97051 | -22.19817 | 32136 ft | 437 kts | 211° |
| 2026-05-08 13:55 | 17.91808 | -22.23038 | 31630 ft | 435 kts | 210° |
| 2026-05-08 13:56 | 17.89204 | -22.24635 | 31382 ft | 433 kts | 210° |
| 2026-05-08 13:56 | 17.86602 | -22.26224 | 31130 ft | 432 kts | 210° |
| 2026-05-08 13:56 | 17.84009 | -22.27804 | 30879 ft | 430 kts | 210° |
| 2026-05-08 13:56 | 17.81429 | -22.29379 | 30611 ft | 428 kts | 210° |
| 2026-05-08 13:57 | 17.78864 | -22.30950 | 30387 ft | 426 kts | 210° |
| 2026-05-08 13:57 | 17.76306 | -22.32522 | 30130 ft | 425 kts | 211° |
| 2026-05-08 13:57 | 17.73758 | -22.34090 | 29876 ft | 423 kts | 211° |
| 2026-05-08 13:57 | 17.71222 | -22.35651 | 29595 ft | 420 kts | 211° |
| 2026-05-08 13:58 | 17.68712 | -22.37192 | 29065 ft | 416 kts | 210° |
| 2026-05-08 13:58 | 17.66221 | -22.38718 | 28516 ft | 413 kts | 210° |
| 2026-05-08 13:58 | 17.63778 | -22.40215 | 27985 ft | 410 kts | 210° |
| 2026-05-08 13:58 | 17.61321 | -22.41719 | 27450 ft | 407 kts | 210° |
| 2026-05-08 13:59 | 17.58882 | -22.43207 | 26940 ft | 403 kts | 210° |
| 2026-05-08 13:59 | 17.56470 | -22.44678 | 26435 ft | 399 kts | 210° |
| 2026-05-08 13:59 | 17.54080 | -22.46138 | 25943 ft | 395 kts | 210° |
| 2026-05-08 13:59 | 17.51720 | -22.47584 | 25464 ft | 391 kts | 210° |
| 2026-05-08 14:00 | 17.49381 | -22.49015 | 24987 ft | 387 kts | 210° |
| 2026-05-08 14:00 | 17.47066 | -22.50431 | 24531 ft | 383 kts | 210° |
| 2026-05-08 14:00 | 17.44780 | -22.51830 | 24079 ft | 379 kts | 211° |
| 2026-05-08 14:00 | 17.42515 | -22.53215 | 23606 ft | 375 kts | 210° |
| 2026-05-08 14:01 | 17.40275 | -22.54584 | 23149 ft | 372 kts | 210° |
| 2026-05-08 14:01 | 17.38051 | -22.55941 | 22689 ft | 369 kts | 210° |
| 2026-05-08 14:01 | 17.35840 | -22.57292 | 22232 ft | 366 kts | 210° |
| 2026-05-08 14:01 | 17.33628 | -22.58643 | 22000 ft | 371 kts | 210° |
| 2026-05-08 14:02 | 17.31393 | -22.60007 | 22003 ft | 372 kts | 210° |
| 2026-05-08 14:02 | 17.29150 | -22.61374 | 22009 ft | 373 kts | 210° |
| 2026-05-08 14:02 | 17.26905 | -22.62745 | 22002 ft | 374 kts | 211° |
| 2026-05-08 14:02 | 17.24656 | -22.64119 | 21555 ft | 373 kts | 210° |
| 2026-05-08 14:03 | 17.22457 | -22.65460 | 21146 ft | 368 kts | 210° |
| 2026-05-08 14:03 | 17.20256 | -22.66802 | 20642 ft | 364 kts | 210° |
| 2026-05-08 14:03 | 17.18077 | -22.68129 | 20045 ft | 361 kts | 210° |
| 2026-05-08 14:03 | 17.15919 | -22.69441 | 19457 ft | 358 kts | 210° |
| 2026-05-08 14:04 | 17.13776 | -22.70743 | 18879 ft | 355 kts | 210° |
| 2026-05-08 14:04 | 17.11649 | -22.72034 | 18306 ft | 351 kts | 210° |
| 2026-05-08 14:04 | 17.09546 | -22.73311 | 17736 ft | 348 kts | 210° |
| 2026-05-08 14:04 | 17.07459 | -22.74578 | 17169 ft | 345 kts | 210° |
| 2026-05-08 14:05 | 17.05390 | -22.75836 | 16595 ft | 343 kts | 210° |
| 2026-05-08 14:05 | 17.03341 | -22.77085 | 16060 ft | 340 kts | 210° |
| 2026-05-08 14:05 | 17.01304 | -22.78324 | 15553 ft | 338 kts | 210° |
| 2026-05-08 14:05 | 16.99279 | -22.79552 | 15085 ft | 335 kts | 210° |
| 2026-05-08 14:06 | 16.97271 | -22.80770 | 14611 ft | 333 kts | 210° |
| 2026-05-08 14:06 | 16.95282 | -22.81980 | 14116 ft | 330 kts | 210° |
| 2026-05-08 14:06 | 16.93302 | -22.83184 | 13610 ft | 328 kts | 210° |
| 2026-05-08 14:06 | 16.91342 | -22.84378 | 13106 ft | 325 kts | 210° |
| 2026-05-08 14:07 | 16.89395 | -22.85563 | 12600 ft | 323 kts | 210° |
| 2026-05-08 14:07 | 16.87464 | -22.86738 | 12096 ft | 320 kts | 210° |
| 2026-05-08 14:07 | 16.85545 | -22.87903 | 11585 ft | 318 kts | 210° |
| 2026-05-08 14:07 | 16.83639 | -22.89056 | 11076 ft | 315 kts | 210° |
| 2026-05-08 14:08 | 16.81746 | -22.90200 | 10619 ft | 312 kts | 210° |
| 2026-05-08 14:08 | 16.79914 | -22.91309 | 10490 ft | 297 kts | 210° |
| 2026-05-08 14:08 | 16.78154 | -22.92374 | 10192 ft | 289 kts | 210° |
| 2026-05-08 14:08 | 16.76427 | -22.93419 | 9876 ft | 283 kts | 210° |
| 2026-05-08 14:09 | 16.74753 | -22.94433 | 9590 ft | 276 kts | 210° |
| 2026-05-08 14:09 | 16.73050 | -22.95325 | 9189 ft | 273 kts | 200° |
| 2026-05-08 14:09 | 16.71267 | -22.95983 | 8763 ft | 271 kts | 200° |
| 2026-05-08 14:09 | 16.69491 | -22.96633 | 8345 ft | 269 kts | 200° |
| 2026-05-08 14:10 | 16.67729 | -22.97276 | 7909 ft | 267 kts | 200° |
| 2026-05-08 14:10 | 16.65979 | -22.97916 | 7442 ft | 266 kts | 200° |
| 2026-05-08 14:10 | 16.64242 | -22.98553 | 6974 ft | 264 kts | 200° |
| 2026-05-08 14:10 | 16.62517 | -22.99187 | 6506 ft | 262 kts | 200° |
| 2026-05-08 14:11 | 16.60800 | -22.99815 | 6035 ft | 260 kts | 200° |
| 2026-05-08 14:11 | 16.59120 | -23.00429 | 5567 ft | 258 kts | 200° |
| 2026-05-08 14:11 | 16.57427 | -23.01047 | 5118 ft | 256 kts | 200° |
| 2026-05-08 14:11 | 16.55790 | -23.01645 | 4985 ft | 243 kts | 200° |
| 2026-05-08 14:12 | 16.54230 | -23.02214 | 4858 ft | 232 kts | 200° |
| 2026-05-08 14:12 | 16.52721 | -23.02727 | 4667 ft | 225 kts | 191° |
| 2026-05-08 14:12 | 16.51171 | -23.02736 | 4389 ft | 223 kts | 168° |
| 2026-05-08 14:12 | 16.49754 | -23.02108 | 4082 ft | 223 kts | 144° |
| 2026-05-08 14:13 | 16.48693 | -23.00946 | 3777 ft | 222 kts | 120° |
| 2026-05-08 14:13 | 16.48213 | -22.99443 | 3614 ft | 217 kts | 96° |
| 2026-05-08 14:13 | 16.48303 | -22.97910 | 3485 ft | 209 kts | 74° |
| 2026-05-08 14:13 | 16.48890 | -22.96558 | 3365 ft | 203 kts | 54° |
| 2026-05-08 14:14 | 16.49845 | -22.95539 | 3204 ft | 198 kts | 34° |
| 2026-05-08 14:14 | 16.51071 | -22.94933 | 3146 ft | 185 kts | 13° |
| 2026-05-08 14:14 | 16.52276 | -22.94796 | 3101 ft | 169 kts | 359° |
| 2026-05-08 14:14 | 16.53409 | -22.94835 | 2959 ft | 153 kts | 356° |
| 2026-05-08 14:15 | 16.54400 | -22.94883 | 2822 ft | 138 kts | 358° |
| 2026-05-08 14:15 | 16.55358 | -22.94876 | 2514 ft | 139 kts | 0° |
| 2026-05-08 14:15 | 16.56334 | -22.94865 | 2181 ft | 141 kts | 360° |
| 2026-05-08 14:15 | 16.57316 | -22.94866 | 1862 ft | 141 kts | 359° |
| 2026-05-08 14:16 | 16.58294 | -22.94875 | 1572 ft | 139 kts | 359° |
| 2026-05-08 14:16 | 16.59251 | -22.94891 | 1442 ft | 137 kts | 358° |
| 2026-05-08 14:16 | 16.60207 | -22.94887 | 1384 ft | 138 kts | 359° |
| 2026-05-08 14:16 | 16.61169 | -22.94886 | 1413 ft | 139 kts | 0° |
| 2026-05-08 14:17 | 16.62155 | -22.94866 | 1434 ft | 144 kts | 0° |
| 2026-05-08 14:17 | 16.63167 | -22.94869 | 1413 ft | 146 kts | 358° |
| 2026-05-08 14:17 | 16.64173 | -22.94888 | 1353 ft | 143 kts | 1° |
| 2026-05-08 14:17 | 16.65155 | -22.94855 | 1253 ft | 143 kts | 359° |
| 2026-05-08 14:18 | 16.66148 | -22.94881 | 1133 ft | 142 kts | 358° |
| 2026-05-08 14:18 | 16.67132 | -22.94873 | 1024 ft | 141 kts | 0° |
| 2026-05-08 14:18 | 16.68108 | -22.94875 | 931 ft | 139 kts | 359° |
| 2026-05-08 14:18 | 16.69069 | -22.94879 | 835 ft | 138 kts | 360° |
| 2026-05-08 14:19 | 16.70041 | -22.94884 | 686 ft | 141 kts | 358° |
| 2026-05-08 14:19 | 16.71026 | -22.94883 | 486 ft | 141 kts | 360° |
| 2026-05-08 14:19 | 16.72008 | -22.94887 | 295 ft | 141 kts | 359° |
| 2026-05-08 14:19 | 16.72968 | -22.94891 | 187 ft | 128 kts | 359° |
| 2026-05-08 14:20 | 16.73739 | -22.94898 | 180 ft | 96 kts | 359° |
| 2026-05-08 14:20 | 16.74248 | -22.94900 | 178 ft | 48 kts | 359° |
| 2026-05-08 14:20 | 16.74544 | -22.94902 | 178 ft | 41 kts | 359° |
| 2026-05-08 14:20 | 16.74809 | -22.94903 | 179 ft | 36 kts | 359° |
| 2026-05-08 14:21 | 16.75019 | -22.94903 | 177 ft | 18 kts | 1° |
| 2026-05-08 14:21 | 16.75058 | -22.94855 | 176 ft | 9 kts | 115° |
| 2026-05-08 14:21 | 16.75030 | -22.94807 | 177 ft | 7 kts | 121° |
| 2026-05-08 14:21 | 16.75006 | -22.94764 | 176 ft | 6 kts | 120° |
| 2026-05-08 14:22 | 16.74969 | -22.94710 | 177 ft | 12 kts | 155° |
| 2026-05-08 14:22 | 16.74866 | -22.94704 | 177 ft | 16 kts | 180° |
| 2026-05-08 14:22 | 16.74753 | -22.94703 | 178 ft | 17 kts | 179° |
| 2026-05-08 14:22 | 16.74634 | -22.94702 | 180 ft | 18 kts | 180° |
| 2026-05-08 14:23 | 16.74506 | -22.94702 | 181 ft | 19 kts | 179° |
| 2026-05-08 14:23 | 16.74368 | -22.94701 | 180 ft | 21 kts | 180° |
| 2026-05-08 14:23 | 16.74222 | -22.94702 | 181 ft | 20 kts | 180° |
| 2026-05-08 14:23 | 16.74076 | -22.94699 | 180 ft | 22 kts | 180° |
| 2026-05-08 14:24 | 16.73922 | -22.94699 | 180 ft | 23 kts | 178° |
| 2026-05-08 14:24 | 16.73771 | -22.94697 | 180 ft | 15 kts | 181° |
| 2026-05-08 14:24 | 16.73666 | -22.94698 | 181 ft | 15 kts | 175° |
| 2026-05-08 14:24 | 16.73606 | -22.94619 | 181 ft | 14 kts | 116° |
| 2026-05-08 14:25 | 16.73519 | -22.94597 | 181 ft | 14 kts | 179° |
| 2026-05-08 14:25 | 16.73442 | -22.94591 | 181 ft | 8 kts | 148° |
| 2026-05-08 14:25 | 16.73431 | -22.94530 | 181 ft | 10 kts | 89° |
| 2026-05-08 14:25 | 16.73431 | -22.94496 | 181 ft | 0 kts | 90° |